Coal Bluff, Indiana
Current Conditions -  °F | °C
As of 7:53 PM on Friday 24 Oct 2014 (Local Time) from KHUF Reporting Station
Clear Clear  
Wind Chill: 56°   Ceiling: Unl
Heat Index: 56°   Visibility: 10mi
Dew Point: 50°   Wind: 3mph
Humidity: 80%   Direction: 160°SSE
Pressure: 30.02"   Gusts: NA
Location:  39.6386°N, 87.3045°W
Report Text: KHUF 242353Z 16003KT 10SM CLR 13/10 A3002 RMK AO2 SLP166 T01330100 10200 20128 55001
Loading
Personal Weather Stations






























Interactive Weather Map
Tropical Storm Tracking
New forecast layout! Learn more

10-Day Weather Forecast

Advertisements
Track Severe Weather on mobile